Liberty Pride — KRAU — position and weather

sailwx.info

Track history (hours):
 
Tides and Currents Weather Stations Pressure Air Temp Water Temp Dewpoint Dewpoint Depression Visibility Wind Speed Wind Dir Waves Ship Positions

Liberty Pride

Owner: Liberty Pride Corporation, Lake Success, NY. More information available from US FCC via Universal Licensing System and Coast Guard Vessel Documentation Center.

Last reported at 2017-Oct-17 06:00 UTC. Time now 2017-Oct-17 08:04 UTC.
Position N 09°12' W 086°36'.

Length 200 m; draft 8.9 m.

Type: Cargo ship. MMSI: 368473000.

Wind from 250 at 12 knots

Barometer 1007.1 mb
Air temperature 27.8 ° C
Visibility: greater than 10.8 NM
Dewpoint 26.8 ° C
Water temperature 28.8 ° C

Date/timePositionNaut miles runAvg speedWind from/ knotsBaromVisibWave heightAir tempDewpointWater temp
2017-Oct-17 06:00N 09°12' W 086°36'32918.3 250 / 121007.110.8 27.826.828.8
2017-Oct-16 12:00N 11°24' W 091°42'11619.4 350 / 8 10.8 28.025.228.8
2017-Oct-16 06:00N 12°12' W 093°30'21317.7 330 / 101009.610.8 28.026.629.8
2017-Oct-15 18:00N 13°42' W 096°48'54818.3 360 / 81010.310.8 30.025.829.9
2017-Oct-14 12:00N 18°48' W 104°42'11018.4 110 / 41010.310.8 28.023.730.5
2017-Oct-14 06:00N 19°42' W 106°24'19110.6 270 / 81010.610.8 26.019.930.4
2017-Oct-13 12:00N 21°30' W 109°12'29716.5 180 / 31010.510.8 27.024.129.6
2017-Oct-12 18:00N 24°42' W 113°18'60314.4 330 / 121011.910.8 25.018.824.9
2017-Oct-11 00:00N 33°46' W 118°15'0 0.0
2017-Oct-10 23:30N 33°46' W 118°15'0 0.0
2017-Oct-10 23:00N 33°46' W 118°15'0 0.0
2017-Oct-10 22:30N 33°46' W 118°15'0 0.0
2017-Oct-10 21:57N 33°46' W 118°15'0 0.0
2017-Oct-10 21:28N 33°46' W 118°15'0 0.0
2017-Oct-10 21:00N 33°46' W 118°15'0 0.0
2017-Oct-10 20:30N 33°46' W 118°15'0 0.0
2017-Oct-10 20:00N 33°46' W 118°15'0 0.0
2017-Oct-10 19:30N 33°46' W 118°15'0 0.0
2017-Oct-10 19:00N 33°46' W 118°15'0 0.0
2017-Oct-10 18:30N 33°46' W 118°15'0 0.0
2017-Oct-10 18:00N 33°46' W 118°15'0 0.0
2017-Oct-10 17:30N 33°46' W 118°15'0 0.0
2017-Oct-10 17:00N 33°46' W 118°15'0 0.0
2017-Oct-10 16:30N 33°46' W 118°15'0 0.0
2017-Oct-10 16:00N 33°46' W 118°15'0 0.0
2017-Oct-10 15:30N 33°46' W 118°15'0 0.0
2017-Oct-10 15:00N 33°46' W 118°15'0 0.0
2017-Oct-10 14:00N 33°46' W 118°15'0 0.3
2017-Oct-10 13:30N 33°46' W 118°15'1 1.8
2017-Oct-10 13:00N 33°45' W 118°16'1 2.4
2017-Oct-10 12:30N 33°44' W 118°17'2 4.8
2017-Oct-10 12:00N 33°42' W 118°15'4 8.7
2017-Oct-10 11:30N 33°38' W 118°16'3 7.0
2017-Oct-10 11:00N 33°36' W 118°20'4 7.8
2017-Oct-10 10:30N 33°36' W 118°24'3 6.5
2017-Oct-10 10:00N 33°37' W 118°28'3 5.6
2017-Oct-10 09:30N 33°37' W 118°31'4 8.4
2017-Oct-10 09:00N 33°37' W 118°36'4 8.7
2017-Oct-10 08:30N 33°38' W 118°42'4 8.6
2017-Oct-10 08:00N 33°38' W 118°47'4 8.5
2017-Oct-10 07:30N 33°38' W 118°52'4 8.5
2017-Oct-10 07:00N 33°39' W 118°57'4 8.1
2017-Oct-10 06:30N 33°39' W 119°02'4 8.3
2017-Oct-10 06:00N 33°39' W 119°07'4 8.7
2017-Oct-10 05:30N 33°40' W 119°12'4 8.7
2017-Oct-10 05:00N 33°40' W 119°17'4 8.5
2017-Oct-10 04:30N 33°41' W 119°22'4 8.5
2017-Oct-10 04:00N 33°41' W 119°27'4 8.5
2017-Oct-10 03:30N 33°42' W 119°33'4 8.6
2017-Oct-10 03:00N 33°42' W 119°38'4 8.9
2017-Oct-10 02:30N 33°43' W 119°43'5 9.0
2017-Oct-10 02:00N 33°43' W 119°48'5 9.1
2017-Oct-10 01:30N 33°43' W 119°54'510.1
2017-Oct-10 01:00N 33°44' W 119°60'510.0
2017-Oct-10 00:29N 33°45' W 120°06'5 9.9
2017-Oct-09 23:58N 33°46' W 120°12'4 9.5
2017-Oct-09 23:30N 33°47' W 120°17'5 9.4
2017-Oct-09 23:00N 33°48' W 120°23'5 9.8
2017-Oct-09 22:30N 33°49' W 120°28'5 9.5
2017-Oct-09 22:00N 33°49' W 120°34'5 9.9
2017-Oct-09 21:30N 33°50' W 120°40'5 9.5
2017-Oct-09 21:00N 33°51' W 120°46'5 9.4
2017-Oct-09 20:30N 33°52' W 120°51'510.7
2017-Oct-09 20:00N 33°53' W 120°58'612.5
2017-Oct-09 19:30N 33°54' W 121°05'612.4
2017-Oct-09 19:00N 33°55' W 121°12'612.3
2017-Oct-09 18:30N 33°56' W 121°20'612.1
2017-Oct-09 18:00N 33°57' W 121°27'612.4
2017-Oct-09 17:30N 33°58' W 121°34'612.3
2017-Oct-09 17:00N 33°59' W 121°42'612.5
2017-Oct-09 16:30N 33°60' W 121°49'612.4
2017-Oct-09 16:00N 34°00' W 121°57'613.0
2017-Oct-09 15:30N 34°01' W 122°04'713.9
2017-Oct-09 15:00N 34°01' W 122°13'4313.8
2017-Oct-09 11:54N 34°03' W 123°04'614.0
2017-Oct-09 11:27N 34°04' W 123°12'7012.8
2017-Oct-09 06:00N 34°12' W 124°36'16413.7 350 / 211011.110.8 18.010.617.9
2017-Oct-08 18:00N 35°24' W 127°36'19916.6 010 / 281019.710.8 19.011.819.5
2017-Oct-08 06:00N 37°00' W 131°12'20617.1 030 / 301022.610.8 19.011.820.8
2017-Oct-07 18:00N 38°30' W 135°06'20817.4 040 / 161024.910.8 20.016.721.5
2017-Oct-07 06:00N 39°54' W 139°12'   030 / 121024.710.8 20.016.721.7
Track history (hours):
 
Tides and Currents Weather Stations Pressure Air Temp Water Temp Dewpoint Dewpoint Depression Visibility Wind Speed Wind Dir Waves Ship Positions

Liberty Pride

Owner: Liberty Pride Corporation, Lake Success, NY. More information available from US FCC via Universal Licensing System and Coast Guard Vessel Documentation Center.

Last reported at 2017-Oct-17 06:00 UTC. Time now 2017-Oct-17 08:04 UTC.
Position N 09°12' W 086°36'.

Length 200 m; draft 8.9 m.

Type: Cargo ship. MMSI: 368473000.

Wind from 250 at 12 knots

Barometer 1007.1 mb
Air temperature 27.8 ° C
Visibility: greater than 10.8 NM
Dewpoint 26.8 ° C
Water temperature 28.8 ° C

Date/timePositionNaut miles runAvg speedWind from/ knotsBaromVisibWave heightAir tempDewpointWater temp
2017-Oct-17 06:00N 09°12' W 086°36'32918.3 250 / 121007.110.8 27.826.828.8
2017-Oct-16 12:00N 11°24' W 091°42'11619.4 350 / 8 10.8 28.025.228.8
2017-Oct-16 06:00N 12°12' W 093°30'21317.7 330 / 101009.610.8 28.026.629.8
2017-Oct-15 18:00N 13°42' W 096°48'54818.3 360 / 81010.310.8 30.025.829.9
2017-Oct-14 12:00N 18°48' W 104°42'11018.4 110 / 41010.310.8 28.023.730.5
2017-Oct-14 06:00N 19°42' W 106°24'19110.6 270 / 81010.610.8 26.019.930.4
2017-Oct-13 12:00N 21°30' W 109°12'29716.5 180 / 31010.510.8 27.024.129.6
2017-Oct-12 18:00N 24°42' W 113°18'60314.4 330 / 121011.910.8 25.018.824.9
2017-Oct-11 00:00N 33°46' W 118°15'0 0.0
2017-Oct-10 23:30N 33°46' W 118°15'0 0.0
2017-Oct-10 23:00N 33°46' W 118°15'0 0.0
2017-Oct-10 22:30N 33°46' W 118°15'0 0.0
2017-Oct-10 21:57N 33°46' W 118°15'0 0.0
2017-Oct-10 21:28N 33°46' W 118°15'0 0.0
2017-Oct-10 21:00N 33°46' W 118°15'0 0.0
2017-Oct-10 20:30N 33°46' W 118°15'0 0.0
2017-Oct-10 20:00N 33°46' W 118°15'0 0.0
2017-Oct-10 19:30N 33°46' W 118°15'0 0.0
2017-Oct-10 19:00N 33°46' W 118°15'0 0.0
2017-Oct-10 18:30N 33°46' W 118°15'0 0.0
2017-Oct-10 18:00N 33°46' W 118°15'0 0.0
2017-Oct-10 17:30N 33°46' W 118°15'0 0.0
2017-Oct-10 17:00N 33°46' W 118°15'0 0.0
2017-Oct-10 16:30N 33°46' W 118°15'0 0.0
2017-Oct-10 16:00N 33°46' W 118°15'0 0.0
2017-Oct-10 15:30N 33°46' W 118°15'0 0.0
2017-Oct-10 15:00N 33°46' W 118°15'0 0.0
2017-Oct-10 14:00N 33°46' W 118°15'0 0.3
2017-Oct-10 13:30N 33°46' W 118°15'1 1.8
2017-Oct-10 13:00N 33°45' W 118°16'1 2.4
2017-Oct-10 12:30N 33°44' W 118°17'2 4.8
2017-Oct-10 12:00N 33°42' W 118°15'4 8.7
2017-Oct-10 11:30N 33°38' W 118°16'3 7.0
2017-Oct-10 11:00N 33°36' W 118°20'4 7.8
2017-Oct-10 10:30N 33°36' W 118°24'3 6.5
2017-Oct-10 10:00N 33°37' W 118°28'3 5.6
2017-Oct-10 09:30N 33°37' W 118°31'4 8.4
2017-Oct-10 09:00N 33°37' W 118°36'4 8.7
2017-Oct-10 08:30N 33°38' W 118°42'4 8.6
2017-Oct-10 08:00N 33°38' W 118°47'4 8.5
2017-Oct-10 07:30N 33°38' W 118°52'4 8.5
2017-Oct-10 07:00N 33°39' W 118°57'4 8.1
2017-Oct-10 06:30N 33°39' W 119°02'4 8.3
2017-Oct-10 06:00N 33°39' W 119°07'4 8.7
2017-Oct-10 05:30N 33°40' W 119°12'4 8.7
2017-Oct-10 05:00N 33°40' W 119°17'4 8.5
2017-Oct-10 04:30N 33°41' W 119°22'4 8.5
2017-Oct-10 04:00N 33°41' W 119°27'4 8.5
2017-Oct-10 03:30N 33°42' W 119°33'4 8.6
2017-Oct-10 03:00N 33°42' W 119°38'4 8.9
2017-Oct-10 02:30N 33°43' W 119°43'5 9.0
2017-Oct-10 02:00N 33°43' W 119°48'5 9.1
2017-Oct-10 01:30N 33°43' W 119°54'510.1
2017-Oct-10 01:00N 33°44' W 119°60'510.0
2017-Oct-10 00:29N 33°45' W 120°06'5 9.9
2017-Oct-09 23:58N 33°46' W 120°12'4 9.5
2017-Oct-09 23:30N 33°47' W 120°17'5 9.4
2017-Oct-09 23:00N 33°48' W 120°23'5 9.8
2017-Oct-09 22:30N 33°49' W 120°28'5 9.5
2017-Oct-09 22:00N 33°49' W 120°34'5 9.9
2017-Oct-09 21:30N 33°50' W 120°40'5 9.5
2017-Oct-09 21:00N 33°51' W 120°46'5 9.4
2017-Oct-09 20:30N 33°52' W 120°51'510.7
2017-Oct-09 20:00N 33°53' W 120°58'612.5
2017-Oct-09 19:30N 33°54' W 121°05'612.4
2017-Oct-09 19:00N 33°55' W 121°12'612.3
2017-Oct-09 18:30N 33°56' W 121°20'612.1
2017-Oct-09 18:00N 33°57' W 121°27'612.4
2017-Oct-09 17:30N 33°58' W 121°34'612.3
2017-Oct-09 17:00N 33°59' W 121°42'612.5
2017-Oct-09 16:30N 33°60' W 121°49'612.4
2017-Oct-09 16:00N 34°00' W 121°57'613.0
2017-Oct-09 15:30N 34°01' W 122°04'713.9
2017-Oct-09 15:00N 34°01' W 122°13'4313.8
2017-Oct-09 11:54N 34°03' W 123°04'614.0
2017-Oct-09 11:27N 34°04' W 123°12'7012.8
2017-Oct-09 06:00N 34°12' W 124°36'16413.7 350 / 211011.110.8 18.010.617.9
2017-Oct-08 18:00N 35°24' W 127°36'19916.6 010 / 281019.710.8 19.011.819.5
2017-Oct-08 06:00N 37°00' W 131°12'20617.1 030 / 301022.610.8 19.011.820.8
2017-Oct-07 18:00N 38°30' W 135°06'20817.4 040 / 161024.910.8 20.016.721.5
2017-Oct-07 06:00N 39°54' W 139°12'   030 / 121024.710.8 20.016.721.7

Dump ship's entire track history